sensor_id;sensor_type;location;lat;lon;timestamp;P1;durP1;ratioP1;P2;durP2;ratioP2
8526;SDS011;4301;48.362;8.478;2022-12-18T00:02:06;55.07;;;34.10;;
8526;SDS011;4301;48.362;8.478;2022-12-18T00:04:35;55.07;;;33.90;;
8526;SDS011;4301;48.362;8.478;2022-12-18T00:07:01;45.03;;;29.80;;
8526;SDS011;4301;48.362;8.478;2022-12-18T00:09:28;47.13;;;29.00;;
8526;SDS011;4301;48.362;8.478;2022-12-18T00:11:55;44.93;;;29.63;;
8526;SDS011;4301;48.362;8.478;2022-12-18T00:14:22;52.73;;;32.57;;
8526;SDS011;4301;48.362;8.478;2022-12-18T00:16:49;58.03;;;37.20;;
8526;SDS011;4301;48.362;8.478;2022-12-18T00:19:16;58.53;;;34.80;;
8526;SDS011;4301;48.362;8.478;2022-12-18T00:21:44;47.10;;;30.57;;
8526;SDS011;4301;48.362;8.478;2022-12-18T00:24:11;54.43;;;33.27;;
8526;SDS011;4301;48.362;8.478;2022-12-18T00:26:39;57.13;;;35.87;;
8526;SDS011;4301;48.362;8.478;2022-12-18T00:29:07;56.70;;;36.30;;
8526;SDS011;4301;48.362;8.478;2022-12-18T00:31:37;55.27;;;35.13;;
8526;SDS011;4301;48.362;8.478;2022-12-18T00:34:04;51.10;;;33.03;;
8526;SDS011;4301;48.362;8.478;2022-12-18T00:36:31;72.47;;;39.23;;
8526;SDS011;4301;48.362;8.478;2022-12-18T00:39:02;177.20;;;68.93;;
8526;SDS011;4301;48.362;8.478;2022-12-18T00:41:31;69.00;;;36.13;;
8526;SDS011;4301;48.362;8.478;2022-12-18T00:44:16;69.73;;;37.87;;
8526;SDS011;4301;48.362;8.478;2022-12-18T00:46:44;57.87;;;35.13;;
8526;SDS011;4301;48.362;8.478;2022-12-18T00:49:11;63.33;;;35.17;;
8526;SDS011;4301;48.362;8.478;2022-12-18T00:51:38;61.20;;;33.20;;
8526;SDS011;4301;48.362;8.478;2022-12-18T00:54:07;68.27;;;35.50;;
8526;SDS011;4301;48.362;8.478;2022-12-18T00:56:34;52.33;;;29.83;;
8526;SDS011;4301;48.362;8.478;2022-12-18T00:59:02;44.73;;;27.50;;
8526;SDS011;4301;48.362;8.478;2022-12-18T01:01:29;54.90;;;30.20;;
8526;SDS011;4301;48.362;8.478;2022-12-18T01:03:57;52.67;;;30.17;;
8526;SDS011;4301;48.362;8.478;2022-12-18T01:06:25;63.27;;;35.27;;
8526;SDS011;4301;48.362;8.478;2022-12-18T01:08:52;66.97;;;33.00;;
8526;SDS011;4301;48.362;8.478;2022-12-18T01:11:20;63.57;;;33.33;;
8526;SDS011;4301;48.362;8.478;2022-12-18T01:13:48;80.20;;;33.00;;
8526;SDS011;4301;48.362;8.478;2022-12-18T01:16:16;64.37;;;31.83;;
8526;SDS011;4301;48.362;8.478;2022-12-18T01:18:44;77.87;;;34.60;;
8526;SDS011;4301;48.362;8.478;2022-12-18T01:21:12;62.23;;;34.93;;
8526;SDS011;4301;48.362;8.478;2022-12-18T01:23:40;63.43;;;35.77;;
8526;SDS011;4301;48.362;8.478;2022-12-18T01:26:08;62.80;;;35.80;;
8526;SDS011;4301;48.362;8.478;2022-12-18T01:28:38;74.60;;;37.23;;
8526;SDS011;4301;48.362;8.478;2022-12-18T01:31:10;109.47;;;53.07;;
8526;SDS011;4301;48.362;8.478;2022-12-18T01:33:41;87.67;;;39.67;;
8526;SDS011;4301;48.362;8.478;2022-12-18T01:36:08;77.47;;;39.10;;
8526;SDS011;4301;48.362;8.478;2022-12-18T01:38:41;70.03;;;37.57;;
8526;SDS011;4301;48.362;8.478;2022-12-18T01:41:08;76.40;;;38.50;;
8526;SDS011;4301;48.362;8.478;2022-12-18T01:43:44;98.03;;;38.37;;
8526;SDS011;4301;48.362;8.478;2022-12-18T01:46:14;78.63;;;38.03;;
8526;SDS011;4301;48.362;8.478;2022-12-18T01:48:42;86.43;;;39.47;;
8526;SDS011;4301;48.362;8.478;2022-12-18T01:51:11;79.90;;;39.53;;
8526;SDS011;4301;48.362;8.478;2022-12-18T01:53:39;80.60;;;40.17;;
8526;SDS011;4301;48.362;8.478;2022-12-18T01:56:07;87.87;;;39.40;;
8526;SDS011;4301;48.362;8.478;2022-12-18T01:58:39;84.80;;;38.97;;
8526;SDS011;4301;48.362;8.478;2022-12-18T02:01:13;89.13;;;39.13;;
8526;SDS011;4301;48.362;8.478;2022-12-18T02:03:41;87.00;;;40.73;;
8526;SDS011;4301;48.362;8.478;2022-12-18T02:06:10;91.37;;;38.43;;
8526;SDS011;4301;48.362;8.478;2022-12-18T02:08:43;99.07;;;41.87;;
8526;SDS011;4301;48.362;8.478;2022-12-18T02:11:18;91.07;;;41.67;;
8526;SDS011;4301;48.362;8.478;2022-12-18T02:13:55;98.90;;;41.17;;
8526;SDS011;4301;48.362;8.478;2022-12-18T02:16:32;89.27;;;39.27;;
8526;SDS011;4301;48.362;8.478;2022-12-18T02:19:06;83.70;;;40.67;;
8526;SDS011;4301;48.362;8.478;2022-12-18T02:21:45;98.57;;;42.50;;
8526;SDS011;4301;48.362;8.478;2022-12-18T02:24:24;80.17;;;38.83;;
8526;SDS011;4301;48.362;8.478;2022-12-18T02:26:59;87.87;;;41.03;;
8526;SDS011;4301;48.362;8.478;2022-12-18T02:29:29;84.83;;;40.23;;
8526;SDS011;4301;48.362;8.478;2022-12-18T02:32:00;81.63;;;38.67;;
8526;SDS011;4301;48.362;8.478;2022-12-18T02:34:29;88.37;;;38.27;;
8526;SDS011;4301;48.362;8.478;2022-12-18T02:36:59;75.20;;;37.60;;
8526;SDS011;4301;48.362;8.478;2022-12-18T02:39:30;83.37;;;38.27;;
8526;SDS011;4301;48.362;8.478;2022-12-18T02:42:00;81.03;;;39.10;;
8526;SDS011;4301;48.362;8.478;2022-12-18T02:44:33;79.13;;;38.47;;
8526;SDS011;4301;48.362;8.478;2022-12-18T02:47:00;77.23;;;39.40;;
8526;SDS011;4301;48.362;8.478;2022-12-18T02:49:30;81.33;;;38.30;;
8526;SDS011;4301;48.362;8.478;2022-12-18T02:52:05;84.63;;;39.17;;
8526;SDS011;4301;48.362;8.478;2022-12-18T02:54:46;83.20;;;39.40;;
8526;SDS011;4301;48.362;8.478;2022-12-18T02:57:23;79.23;;;38.13;;
8526;SDS011;4301;48.362;8.478;2022-12-18T02:59:57;80.13;;;39.17;;
8526;SDS011;4301;48.362;8.478;2022-12-18T03:02:29;80.63;;;38.13;;
8526;SDS011;4301;48.362;8.478;2022-12-18T03:05:03;84.37;;;40.00;;
8526;SDS011;4301;48.362;8.478;2022-12-18T03:07:37;81.27;;;39.00;;
8526;SDS011;4301;48.362;8.478;2022-12-18T03:10:09;80.57;;;38.83;;
8526;SDS011;4301;48.362;8.478;2022-12-18T03:12:42;80.70;;;37.53;;
8526;SDS011;4301;48.362;8.478;2022-12-18T03:15:14;86.07;;;39.03;;
8526;SDS011;4301;48.362;8.478;2022-12-18T03:17:48;80.63;;;38.07;;
8526;SDS011;4301;48.362;8.478;2022-12-18T03:20:28;76.43;;;36.73;;
8526;SDS011;4301;48.362;8.478;2022-12-18T03:22:59;71.40;;;35.00;;
8526;SDS011;4301;48.362;8.478;2022-12-18T03:25:31;72.07;;;35.87;;
8526;SDS011;4301;48.362;8.478;2022-12-18T03:28:02;77.67;;;36.10;;
8526;SDS011;4301;48.362;8.478;2022-12-18T03:30:31;72.97;;;35.23;;
8526;SDS011;4301;48.362;8.478;2022-12-18T03:33:05;74.60;;;36.30;;
8526;SDS011;4301;48.362;8.478;2022-12-18T03:35:36;77.00;;;35.70;;
8526;SDS011;4301;48.362;8.478;2022-12-18T03:38:06;75.27;;;35.37;;
8526;SDS011;4301;48.362;8.478;2022-12-18T03:40:35;85.23;;;36.17;;
8526;SDS011;4301;48.362;8.478;2022-12-18T03:43:12;66.77;;;34.40;;
8526;SDS011;4301;48.362;8.478;2022-12-18T03:45:47;74.47;;;36.40;;
8526;SDS011;4301;48.362;8.478;2022-12-18T03:48:19;72.70;;;35.13;;
8526;SDS011;4301;48.362;8.478;2022-12-18T03:50:56;72.47;;;34.70;;
8526;SDS011;4301;48.362;8.478;2022-12-18T03:53:31;67.20;;;34.13;;
8526;SDS011;4301;48.362;8.478;2022-12-18T03:56:03;70.60;;;35.10;;
8526;SDS011;4301;48.362;8.478;2022-12-18T03:58:33;69.03;;;34.50;;
8526;SDS011;4301;48.362;8.478;2022-12-18T04:01:03;77.37;;;34.57;;
8526;SDS011;4301;48.362;8.478;2022-12-18T04:03:35;71.17;;;34.17;;
8526;SDS011;4301;48.362;8.478;2022-12-18T04:06:03;76.53;;;34.63;;
8526;SDS011;4301;48.362;8.478;2022-12-18T04:08:32;68.80;;;34.57;;
8526;SDS011;4301;48.362;8.478;2022-12-18T04:11:00;78.13;;;35.60;;
8526;SDS011;4301;48.362;8.478;2022-12-18T04:13:28;70.93;;;33.77;;
8526;SDS011;4301;48.362;8.478;2022-12-18T04:15:59;74.93;;;35.33;;
8526;SDS011;4301;48.362;8.478;2022-12-18T04:18:26;81.97;;;35.47;;
8526;SDS011;4301;48.362;8.478;2022-12-18T04:20:53;75.23;;;34.80;;
8526;SDS011;4301;48.362;8.478;2022-12-18T04:23:20;75.53;;;35.37;;
8526;SDS011;4301;48.362;8.478;2022-12-18T04:25:47;78.67;;;36.93;;
8526;SDS011;4301;48.362;8.478;2022-12-18T04:28:14;74.30;;;35.33;;
8526;SDS011;4301;48.362;8.478;2022-12-18T04:30:41;73.47;;;34.57;;
8526;SDS011;4301;48.362;8.478;2022-12-18T04:33:10;73.27;;;35.07;;
8526;SDS011;4301;48.362;8.478;2022-12-18T04:35:38;70.43;;;33.87;;
8526;SDS011;4301;48.362;8.478;2022-12-18T04:38:05;76.67;;;35.13;;
8526;SDS011;4301;48.362;8.478;2022-12-18T04:40:34;73.27;;;33.53;;
8526;SDS011;4301;48.362;8.478;2022-12-18T04:43:01;65.03;;;33.37;;
8526;SDS011;4301;48.362;8.478;2022-12-18T04:45:28;72.97;;;33.27;;
8526;SDS011;4301;48.362;8.478;2022-12-18T04:47:56;68.50;;;32.90;;
8526;SDS011;4301;48.362;8.478;2022-12-18T04:50:25;72.87;;;33.53;;
8526;SDS011;4301;48.362;8.478;2022-12-18T04:52:52;72.60;;;33.67;;
8526;SDS011;4301;48.362;8.478;2022-12-18T04:55:19;75.43;;;34.23;;
8526;SDS011;4301;48.362;8.478;2022-12-18T04:57:46;76.53;;;35.97;;
8526;SDS011;4301;48.362;8.478;2022-12-18T05:00:13;76.73;;;33.90;;
8526;SDS011;4301;48.362;8.478;2022-12-18T05:02:41;78.83;;;36.33;;
8526;SDS011;4301;48.362;8.478;2022-12-18T05:05:08;68.73;;;33.93;;
8526;SDS011;4301;48.362;8.478;2022-12-18T05:07:36;68.67;;;33.73;;
8526;SDS011;4301;48.362;8.478;2022-12-18T05:10:04;70.03;;;34.40;;
8526;SDS011;4301;48.362;8.478;2022-12-18T05:12:31;66.40;;;33.53;;
8526;SDS011;4301;48.362;8.478;2022-12-18T05:14:59;66.80;;;33.33;;
8526;SDS011;4301;48.362;8.478;2022-12-18T05:17:28;71.30;;;34.07;;
8526;SDS011;4301;48.362;8.478;2022-12-18T05:19:55;75.10;;;32.33;;
8526;SDS011;4301;48.362;8.478;2022-12-18T05:22:22;66.50;;;32.27;;
8526;SDS011;4301;48.362;8.478;2022-12-18T05:24:51;65.87;;;31.10;;
8526;SDS011;4301;48.362;8.478;2022-12-18T05:27:18;64.83;;;31.10;;
8526;SDS011;4301;48.362;8.478;2022-12-18T05:29:45;61.17;;;30.40;;
8526;SDS011;4301;48.362;8.478;2022-12-18T05:32:13;60.70;;;30.07;;
8526;SDS011;4301;48.362;8.478;2022-12-18T05:34:40;61.40;;;30.73;;
8526;SDS011;4301;48.362;8.478;2022-12-18T05:37:07;61.07;;;30.17;;
8526;SDS011;4301;48.362;8.478;2022-12-18T05:39:33;60.10;;;30.23;;
8526;SDS011;4301;48.362;8.478;2022-12-18T05:42:02;62.53;;;30.00;;
8526;SDS011;4301;48.362;8.478;2022-12-18T05:44:29;60.90;;;30.23;;
8526;SDS011;4301;48.362;8.478;2022-12-18T05:46:56;56.57;;;28.77;;
8526;SDS011;4301;48.362;8.478;2022-12-18T05:49:22;53.23;;;29.23;;
8526;SDS011;4301;48.362;8.478;2022-12-18T05:51:49;61.13;;;29.83;;
8526;SDS011;4301;48.362;8.478;2022-12-18T05:54:16;52.30;;;27.83;;
8526;SDS011;4301;48.362;8.478;2022-12-18T05:56:43;55.20;;;27.97;;
8526;SDS011;4301;48.362;8.478;2022-12-18T05:59:11;56.07;;;28.63;;
8526;SDS011;4301;48.362;8.478;2022-12-18T06:01:38;58.50;;;32.33;;
8526;SDS011;4301;48.362;8.478;2022-12-18T06:04:05;58.10;;;29.93;;
8526;SDS011;4301;48.362;8.478;2022-12-18T06:06:32;59.60;;;27.90;;
8526;SDS011;4301;48.362;8.478;2022-12-18T06:08:59;59.43;;;29.67;;
8526;SDS011;4301;48.362;8.478;2022-12-18T06:11:26;61.67;;;29.57;;
8526;SDS011;4301;48.362;8.478;2022-12-18T06:13:54;55.27;;;28.50;;
8526;SDS011;4301;48.362;8.478;2022-12-18T06:16:23;55.60;;;30.07;;
8526;SDS011;4301;48.362;8.478;2022-12-18T06:18:50;58.47;;;29.67;;
8526;SDS011;4301;48.362;8.478;2022-12-18T06:21:17;59.13;;;29.63;;
8526;SDS011;4301;48.362;8.478;2022-12-18T06:23:44;62.00;;;29.40;;
8526;SDS011;4301;48.362;8.478;2022-12-18T06:26:12;60.27;;;29.57;;
8526;SDS011;4301;48.362;8.478;2022-12-18T06:28:39;56.23;;;28.07;;
8526;SDS011;4301;48.362;8.478;2022-12-18T06:31:07;63.00;;;34.75;;
8526;SDS011;4301;48.362;8.478;2022-12-18T06:33:36;62.90;;;31.57;;
8526;SDS011;4301;48.362;8.478;2022-12-18T06:36:05;64.53;;;30.73;;
8526;SDS011;4301;48.362;8.478;2022-12-18T06:38:33;56.80;;;29.07;;
8526;SDS011;4301;48.362;8.478;2022-12-18T06:41:05;63.77;;;30.27;;
8526;SDS011;4301;48.362;8.478;2022-12-18T06:43:33;64.33;;;30.83;;
8526;SDS011;4301;48.362;8.478;2022-12-18T06:46:00;72.37;;;33.07;;
8526;SDS011;4301;48.362;8.478;2022-12-18T06:48:27;53.60;;;28.93;;
8526;SDS011;4301;48.362;8.478;2022-12-18T06:50:56;59.33;;;30.93;;
8526;SDS011;4301;48.362;8.478;2022-12-18T06:53:23;66.27;;;31.40;;
8526;SDS011;4301;48.362;8.478;2022-12-18T06:55:50;60.50;;;29.60;;
8526;SDS011;4301;48.362;8.478;2022-12-18T06:58:17;65.50;;;31.03;;
8526;SDS011;4301;48.362;8.478;2022-12-18T07:00:44;65.03;;;31.40;;
8526;SDS011;4301;48.362;8.478;2022-12-18T07:03:11;72.80;;;32.77;;
8526;SDS011;4301;48.362;8.478;2022-12-18T07:05:39;62.83;;;29.87;;
8526;SDS011;4301;48.362;8.478;2022-12-18T07:08:08;62.77;;;31.03;;
8526;SDS011;4301;48.362;8.478;2022-12-18T07:10:40;63.53;;;30.70;;
8526;SDS011;4301;48.362;8.478;2022-12-18T07:13:07;58.10;;;29.63;;
8526;SDS011;4301;48.362;8.478;2022-12-18T07:15:34;59.80;;;29.87;;
8526;SDS011;4301;48.362;8.478;2022-12-18T07:18:01;59.17;;;29.50;;
8526;SDS011;4301;48.362;8.478;2022-12-18T07:20:28;59.30;;;30.77;;
8526;SDS011;4301;48.362;8.478;2022-12-18T07:22:55;61.17;;;31.00;;
8526;SDS011;4301;48.362;8.478;2022-12-18T07:25:24;62.90;;;30.00;;
8526;SDS011;4301;48.362;8.478;2022-12-18T07:27:51;62.27;;;30.40;;
8526;SDS011;4301;48.362;8.478;2022-12-18T07:30:17;58.40;;;29.73;;
8526;SDS011;4301;48.362;8.478;2022-12-18T07:32:44;60.37;;;29.10;;
8526;SDS011;4301;48.362;8.478;2022-12-18T07:35:11;60.07;;;28.20;;
8526;SDS011;4301;48.362;8.478;2022-12-18T07:37:38;61.20;;;28.30;;
8526;SDS011;4301;48.362;8.478;2022-12-18T07:40:06;60.23;;;29.10;;
8526;SDS011;4301;48.362;8.478;2022-12-18T07:42:35;55.63;;;28.43;;
8526;SDS011;4301;48.362;8.478;2022-12-18T07:45:03;56.30;;;28.70;;
8526;SDS011;4301;48.362;8.478;2022-12-18T07:47:30;51.43;;;27.13;;
8526;SDS011;4301;48.362;8.478;2022-12-18T07:49:59;57.37;;;28.40;;
8526;SDS011;4301;48.362;8.478;2022-12-18T07:52:26;55.33;;;27.70;;
8526;SDS011;4301;48.362;8.478;2022-12-18T07:54:53;56.83;;;28.53;;
8526;SDS011;4301;48.362;8.478;2022-12-18T07:57:20;54.83;;;28.03;;
8526;SDS011;4301;48.362;8.478;2022-12-18T07:59:49;54.17;;;27.00;;
8526;SDS011;4301;48.362;8.478;2022-12-18T08:02:15;54.47;;;26.17;;
8526;SDS011;4301;48.362;8.478;2022-12-18T08:04:42;53.57;;;27.10;;
8526;SDS011;4301;48.362;8.478;2022-12-18T08:07:09;54.53;;;27.33;;
8526;SDS011;4301;48.362;8.478;2022-12-18T08:09:36;55.50;;;27.47;;
8526;SDS011;4301;48.362;8.478;2022-12-18T08:12:03;49.73;;;26.63;;
8526;SDS011;4301;48.362;8.478;2022-12-18T08:14:31;48.67;;;25.27;;
8526;SDS011;4301;48.362;8.478;2022-12-18T08:16:59;50.50;;;26.43;;
8526;SDS011;4301;48.362;8.478;2022-12-18T08:19:26;53.27;;;26.87;;
8526;SDS011;4301;48.362;8.478;2022-12-18T08:21:53;48.97;;;26.37;;
8526;SDS011;4301;48.362;8.478;2022-12-18T08:24:20;52.23;;;26.47;;
8526;SDS011;4301;48.362;8.478;2022-12-18T08:26:47;49.70;;;25.73;;
8526;SDS011;4301;48.362;8.478;2022-12-18T08:29:13;54.50;;;26.73;;
8526;SDS011;4301;48.362;8.478;2022-12-18T08:31:41;51.17;;;26.87;;
8526;SDS011;4301;48.362;8.478;2022-12-18T08:34:09;58.20;;;27.67;;
8526;SDS011;4301;48.362;8.478;2022-12-18T08:36:36;54.80;;;26.47;;
8526;SDS011;4301;48.362;8.478;2022-12-18T08:39:03;51.77;;;26.63;;
8526;SDS011;4301;48.362;8.478;2022-12-18T08:41:30;51.90;;;28.27;;
8526;SDS011;4301;48.362;8.478;2022-12-18T08:43:57;55.03;;;27.23;;
8526;SDS011;4301;48.362;8.478;2022-12-18T08:46:42;50.50;;;27.17;;
8526;SDS011;4301;48.362;8.478;2022-12-18T08:49:11;53.53;;;26.53;;
8526;SDS011;4301;48.362;8.478;2022-12-18T08:51:38;50.43;;;26.03;;
8526;SDS011;4301;48.362;8.478;2022-12-18T08:54:05;53.63;;;28.20;;
8526;SDS011;4301;48.362;8.478;2022-12-18T08:56:33;52.63;;;26.60;;
8526;SDS011;4301;48.362;8.478;2022-12-18T08:59:00;53.50;;;26.73;;
8526;SDS011;4301;48.362;8.478;2022-12-18T09:01:27;51.73;;;26.37;;
8526;SDS011;4301;48.362;8.478;2022-12-18T09:03:54;54.73;;;25.97;;
8526;SDS011;4301;48.362;8.478;2022-12-18T09:06:22;47.73;;;25.50;;
8526;SDS011;4301;48.362;8.478;2022-12-18T09:08:51;51.20;;;25.63;;
8526;SDS011;4301;48.362;8.478;2022-12-18T09:11:19;48.83;;;26.17;;
8526;SDS011;4301;48.362;8.478;2022-12-18T09:13:48;45.87;;;24.00;;
8526;SDS011;4301;48.362;8.478;2022-12-18T09:16:15;51.30;;;25.30;;
8526;SDS011;4301;48.362;8.478;2022-12-18T09:18:42;51.43;;;24.90;;
8526;SDS011;4301;48.362;8.478;2022-12-18T09:21:10;49.57;;;25.50;;
8526;SDS011;4301;48.362;8.478;2022-12-18T09:23:40;49.67;;;24.70;;
8526;SDS011;4301;48.362;8.478;2022-12-18T09:26:07;47.80;;;24.67;;
8526;SDS011;4301;48.362;8.478;2022-12-18T09:28:34;46.33;;;23.93;;
8526;SDS011;4301;48.362;8.478;2022-12-18T09:31:03;45.47;;;23.97;;
8526;SDS011;4301;48.362;8.478;2022-12-18T09:33:32;44.30;;;24.33;;
8526;SDS011;4301;48.362;8.478;2022-12-18T09:36:00;46.00;;;24.47;;
8526;SDS011;4301;48.362;8.478;2022-12-18T09:38:28;44.27;;;24.70;;
8526;SDS011;4301;48.362;8.478;2022-12-18T09:40:57;42.30;;;24.47;;
8526;SDS011;4301;48.362;8.478;2022-12-18T09:43:28;41.23;;;24.03;;
8526;SDS011;4301;48.362;8.478;2022-12-18T09:46:01;43.37;;;24.10;;
8526;SDS011;4301;48.362;8.478;2022-12-18T09:48:34;43.73;;;24.33;;
8526;SDS011;4301;48.362;8.478;2022-12-18T09:51:04;44.93;;;24.57;;
8526;SDS011;4301;48.362;8.478;2022-12-18T09:53:37;42.90;;;24.37;;
8526;SDS011;4301;48.362;8.478;2022-12-18T09:56:11;39.43;;;23.30;;
8526;SDS011;4301;48.362;8.478;2022-12-18T09:58:43;42.33;;;25.17;;
8526;SDS011;4301;48.362;8.478;2022-12-18T10:01:15;40.40;;;24.03;;
8526;SDS011;4301;48.362;8.478;2022-12-18T10:03:48;40.57;;;25.07;;
8526;SDS011;4301;48.362;8.478;2022-12-18T10:06:18;41.40;;;25.50;;
8526;SDS011;4301;48.362;8.478;2022-12-18T10:08:51;40.53;;;25.90;;
8526;SDS011;4301;48.362;8.478;2022-12-18T10:11:27;39.37;;;26.27;;
8526;SDS011;4301;48.362;8.478;2022-12-18T10:14:06;43.50;;;28.93;;
8526;SDS011;4301;48.362;8.478;2022-12-18T10:16:39;42.03;;;28.50;;
8526;SDS011;4301;48.362;8.478;2022-12-18T10:19:22;41.90;;;29.03;;
8526;SDS011;4301;48.362;8.478;2022-12-18T10:22:00;41.57;;;27.87;;
8526;SDS011;4301;48.362;8.478;2022-12-18T10:24:38;38.73;;;26.77;;
8526;SDS011;4301;48.362;8.478;2022-12-18T10:27:12;40.53;;;27.60;;
8526;SDS011;4301;48.362;8.478;2022-12-18T10:29:41;39.00;;;26.87;;
8526;SDS011;4301;48.362;8.478;2022-12-18T10:32:13;39.87;;;26.70;;
8526;SDS011;4301;48.362;8.478;2022-12-18T10:34:45;41.57;;;28.37;;
8526;SDS011;4301;48.362;8.478;2022-12-18T10:37:14;38.53;;;26.80;;
8526;SDS011;4301;48.362;8.478;2022-12-18T10:39:44;43.47;;;28.93;;
8526;SDS011;4301;48.362;8.478;2022-12-18T10:42:15;44.50;;;28.87;;
8526;SDS011;4301;48.362;8.478;2022-12-18T10:44:44;55.83;;;32.77;;
8526;SDS011;4301;48.362;8.478;2022-12-18T10:47:11;43.80;;;28.23;;
8526;SDS011;4301;48.362;8.478;2022-12-18T10:49:47;44.60;;;29.63;;
8526;SDS011;4301;48.362;8.478;2022-12-18T10:52:17;48.07;;;31.23;;
8526;SDS011;4301;48.362;8.478;2022-12-18T10:54:48;43.07;;;28.43;;
8526;SDS011;4301;48.362;8.478;2022-12-18T10:57:29;43.83;;;29.75;;
8526;SDS011;4301;48.362;8.478;2022-12-18T10:59:59;41.92;;;33.58;;
8526;SDS011;4301;48.362;8.478;2022-12-18T11:02:39;41.40;;;28.63;;
8526;SDS011;4301;48.362;8.478;2022-12-18T11:07:53;39.30;;;27.80;;
8526;SDS011;4301;48.362;8.478;2022-12-18T11:10:21;39.23;;;28.27;;
8526;SDS011;4301;48.362;8.478;2022-12-18T11:12:53;37.33;;;27.37;;
8526;SDS011;4301;48.362;8.478;2022-12-18T11:15:21;40.63;;;28.37;;
8526;SDS011;4301;48.362;8.478;2022-12-18T11:17:52;44.20;;;30.27;;
8526;SDS011;4301;48.362;8.478;2022-12-18T11:20:21;41.30;;;28.77;;
8526;SDS011;4301;48.362;8.478;2022-12-18T11:22:54;36.67;;;26.70;;
8526;SDS011;4301;48.362;8.478;2022-12-18T11:25:23;37.93;;;27.00;;
8526;SDS011;4301;48.362;8.478;2022-12-18T11:27:56;40.37;;;28.50;;
8526;SDS011;4301;48.362;8.478;2022-12-18T11:30:24;42.70;;;29.23;;
8526;SDS011;4301;48.362;8.478;2022-12-18T11:32:54;38.43;;;27.23;;
8526;SDS011;4301;48.362;8.478;2022-12-18T11:35:27;40.47;;;28.70;;
8526;SDS011;4301;48.362;8.478;2022-12-18T11:38:02;40.77;;;28.70;;
8526;SDS011;4301;48.362;8.478;2022-12-18T11:40:33;42.07;;;27.97;;
8526;SDS011;4301;48.362;8.478;2022-12-18T11:43:05;48.23;;;31.83;;
8526;SDS011;4301;48.362;8.478;2022-12-18T11:45:38;40.20;;;28.53;;
8526;SDS011;4301;48.362;8.478;2022-12-18T11:48:09;46.20;;;30.60;;
8526;SDS011;4301;48.362;8.478;2022-12-18T11:50:44;40.50;;;28.17;;
8526;SDS011;4301;48.362;8.478;2022-12-18T11:53:15;41.33;;;27.80;;
8526;SDS011;4301;48.362;8.478;2022-12-18T11:55:47;40.10;;;27.70;;
8526;SDS011;4301;48.362;8.478;2022-12-18T11:58:24;43.50;;;29.30;;
8526;SDS011;4301;48.362;8.478;2022-12-18T12:01:05;42.00;;;27.83;;
8526;SDS011;4301;48.362;8.478;2022-12-18T12:03:45;139.87;;;59.33;;
8526;SDS011;4301;48.362;8.478;2022-12-18T12:06:33;38.60;;;26.53;;
8526;SDS011;4301;48.362;8.478;2022-12-18T12:09:10;37.97;;;26.53;;
8526;SDS011;4301;48.362;8.478;2022-12-18T12:11:46;40.33;;;27.50;;
8526;SDS011;4301;48.362;8.478;2022-12-18T12:14:32;40.23;;;27.67;;
8526;SDS011;4301;48.362;8.478;2022-12-18T12:17:10;38.00;;;27.17;;
8526;SDS011;4301;48.362;8.478;2022-12-18T12:19:46;47.20;;;29.87;;
8526;SDS011;4301;48.362;8.478;2022-12-18T12:22:20;38.77;;;26.60;;
8526;SDS011;4301;48.362;8.478;2022-12-18T12:24:57;41.93;;;27.90;;
8526;SDS011;4301;48.362;8.478;2022-12-18T12:27:36;41.33;;;27.30;;
8526;SDS011;4301;48.362;8.478;2022-12-18T12:30:15;43.20;;;27.73;;
8526;SDS011;4301;48.362;8.478;2022-12-18T12:32:49;44.57;;;27.77;;
8526;SDS011;4301;48.362;8.478;2022-12-18T12:35:29;42.93;;;27.07;;
8526;SDS011;4301;48.362;8.478;2022-12-18T12:38:07;40.23;;;26.50;;
8526;SDS011;4301;48.362;8.478;2022-12-18T12:40:38;42.13;;;26.97;;
8526;SDS011;4301;48.362;8.478;2022-12-18T12:43:12;45.57;;;28.17;;
8526;SDS011;4301;48.362;8.478;2022-12-18T12:45:48;40.97;;;27.50;;
8526;SDS011;4301;48.362;8.478;2022-12-18T12:48:20;43.83;;;27.13;;
8526;SDS011;4301;48.362;8.478;2022-12-18T12:50:58;46.27;;;28.87;;
8526;SDS011;4301;48.362;8.478;2022-12-18T12:53:27;40.17;;;26.60;;
8526;SDS011;4301;48.362;8.478;2022-12-18T12:56:00;41.93;;;26.60;;
8526;SDS011;4301;48.362;8.478;2022-12-18T12:58:31;41.83;;;26.00;;
8526;SDS011;4301;48.362;8.478;2022-12-18T13:01:10;42.30;;;25.50;;
8526;SDS011;4301;48.362;8.478;2022-12-18T13:03:44;42.77;;;27.23;;
8526;SDS011;4301;48.362;8.478;2022-12-18T13:06:19;46.80;;;27.37;;
8526;SDS011;4301;48.362;8.478;2022-12-18T13:08:58;46.20;;;27.80;;
8526;SDS011;4301;48.362;8.478;2022-12-18T13:11:36;41.67;;;27.00;;
8526;SDS011;4301;48.362;8.478;2022-12-18T13:14:23;45.63;;;27.43;;
8526;SDS011;4301;48.362;8.478;2022-12-18T13:19:42;51.40;;;30.27;;
8526;SDS011;4301;48.362;8.478;2022-12-18T13:22:20;68.17;;;35.97;;
8526;SDS011;4301;48.362;8.478;2022-12-18T13:24:48;93.83;;;44.90;;
8526;SDS011;4301;48.362;8.478;2022-12-18T13:36:25;72.73;;;37.90;;
8526;SDS011;4301;48.362;8.478;2022-12-18T13:39:11;61.97;;;35.27;;
8526;SDS011;4301;48.362;8.478;2022-12-18T13:41:49;55.07;;;31.83;;
8526;SDS011;4301;48.362;8.478;2022-12-18T13:44:23;53.40;;;32.97;;
8526;SDS011;4301;48.362;8.478;2022-12-18T13:46:52;48.90;;;28.53;;
8526;SDS011;4301;48.362;8.478;2022-12-18T13:49:23;51.43;;;31.57;;
8526;SDS011;4301;48.362;8.478;2022-12-18T13:51:54;48.17;;;29.80;;
8526;SDS011;4301;48.362;8.478;2022-12-18T13:54:30;49.20;;;29.60;;
8526;SDS011;4301;48.362;8.478;2022-12-18T13:57:00;47.67;;;33.22;;
8526;SDS011;4301;48.362;8.478;2022-12-18T13:59:33;48.40;;;30.50;;
8526;SDS011;4301;48.362;8.478;2022-12-18T14:02:07;49.07;;;29.60;;
8526;SDS011;4301;48.362;8.478;2022-12-18T14:04:44;51.03;;;29.37;;
8526;SDS011;4301;48.362;8.478;2022-12-18T14:07:12;48.97;;;29.27;;
8526;SDS011;4301;48.362;8.478;2022-12-18T14:09:42;48.40;;;28.03;;
8526;SDS011;4301;48.362;8.478;2022-12-18T14:12:14;44.33;;;27.17;;
8526;SDS011;4301;48.362;8.478;2022-12-18T14:15:01;46.57;;;26.70;;
8526;SDS011;4301;48.362;8.478;2022-12-18T14:17:30;44.37;;;25.83;;
8526;SDS011;4301;48.362;8.478;2022-12-18T14:19:59;46.73;;;26.47;;
8526;SDS011;4301;48.362;8.478;2022-12-18T14:22:26;45.77;;;25.90;;
8526;SDS011;4301;48.362;8.478;2022-12-18T14:27:50;50.43;;;26.77;;
8526;SDS011;4301;48.362;8.478;2022-12-18T14:30:24;48.37;;;26.60;;
8526;SDS011;4301;48.362;8.478;2022-12-18T14:33:02;47.33;;;26.40;;
8526;SDS011;4301;48.362;8.478;2022-12-18T14:35:31;52.43;;;27.53;;
8526;SDS011;4301;48.362;8.478;2022-12-18T14:38:19;47.07;;;26.50;;
8526;SDS011;4301;48.362;8.478;2022-12-18T14:40:51;53.43;;;28.50;;
8526;SDS011;4301;48.362;8.478;2022-12-18T14:43:19;49.40;;;27.03;;
8526;SDS011;4301;48.362;8.478;2022-12-18T14:45:47;45.63;;;26.90;;
8526;SDS011;4301;48.362;8.478;2022-12-18T14:48:15;47.77;;;26.50;;
8526;SDS011;4301;48.362;8.478;2022-12-18T14:50:45;53.20;;;28.30;;
8526;SDS011;4301;48.362;8.478;2022-12-18T14:53:23;50.40;;;27.27;;
8526;SDS011;4301;48.362;8.478;2022-12-18T14:55:55;57.63;;;30.80;;
8526;SDS011;4301;48.362;8.478;2022-12-18T14:58:21;54.43;;;28.10;;
8526;SDS011;4301;48.362;8.478;2022-12-18T15:00:48;52.20;;;27.43;;
8526;SDS011;4301;48.362;8.478;2022-12-18T15:03:17;51.20;;;28.00;;
8526;SDS011;4301;48.362;8.478;2022-12-18T15:05:47;56.47;;;31.10;;
8526;SDS011;4301;48.362;8.478;2022-12-18T15:08:26;104.07;;;42.53;;
8526;SDS011;4301;48.362;8.478;2022-12-18T15:10:56;52.77;;;29.07;;
8526;SDS011;4301;48.362;8.478;2022-12-18T15:13:23;78.27;;;36.43;;
8526;SDS011;4301;48.362;8.478;2022-12-18T15:15:51;126.37;;;51.27;;
8526;SDS011;4301;48.362;8.478;2022-12-18T15:18:19;98.93;;;41.90;;
8526;SDS011;4301;48.362;8.478;2022-12-18T15:20:51;101.87;;;45.23;;
8526;SDS011;4301;48.362;8.478;2022-12-18T15:23:20;110.73;;;46.87;;
8526;SDS011;4301;48.362;8.478;2022-12-18T15:25:54;144.10;;;56.97;;